Hovedside
METAR-TAF:

METAR-TAF

Lufthavner :

Tacoma / Fort Lewis, Washington, USA

breddegrad: 47-07N, lengdegrad: 122-33W, høyde over havet: 92 m

Gjeldene værobservasjon

Denne rapporten ble laget for 10 minutter siden, klokken 23:38 UTC
Vind 9 kt fra Vest-nordvest
Temperatur 32°C
Luftfuktighet 32%
Trykk 1015 hPa
Sikt: 6.4 km
Skyfri himmel
dis, røyk

METAR: KGRF 212338Z 30009KT 4SM HZ FU CLR 32/13 A2997 RMK AO2A SLP151 $

Tid: 16:48 (23:48 UTC)

Varsel

Denne rapporten ble laget for 2 timer og 47 minutter siden, klokken 21:01 UTC
Varsel gyldig fra 21. klokken 21 UTC til 23. klokken 03 UTC
Vind 6 kt fra skiftende retning
Sikt: 3200 m
Skyfri himmel
røyk
Blir
fra 22. klokken 19 UTC til 22. klokken 20 UTC
Vind 6 kt fra Vest-sørvest
Sikt: 8000 m
Få skyer i en høyde av 18000 ft
dis

TAF: KGRF 212101Z 2121/2303 VRB06KT 3200 FU SKC QNH2993INS BECMG 2219/2220 25006KT 8000 HZ FEW180 QNH2988INS TX31/2122Z TN13/2212Z

Værobservasjoner og værvarsel for over 4000 flyplasser (METAR- og TAF-rapporter).

Tilgjengelige stasjoner er representert av de røde og gule prikkene på kartet.

Hold musepekeren over prikken for å se navnet på stasjonen.

Klikk så for å se værobservasjoner og -varsler.

For å forandre kartet kan du klikke på den grønne knappen med svart kryss for å zoome inn, på den grønne knappen med strek for å zoome ut, eller på de grønne pilene for å se tilstøtende kart.


METAR-TAF: